TimeEDT,TemperatureF,Dew PointF,Humidity,Sea Level PressureIn,VisibilityMPH,Wind Direction,Wind SpeedMPH,Gust SpeedMPH,PrecipitationIn,Events,Conditions,WindDirDegrees,DateUTC
12:51 AM,64.0,55.0,73,30.10,10.0,East,11.5,-,N/A,,Clear,100,2013-05-02 04:51:00
1:51 AM,64.0,55.0,73,30.09,10.0,East,11.5,-,N/A,,Partly Cloudy,90,2013-05-02 05:51:00
2:51 AM,64.0,55.0,73,30.06,10.0,East,9.2,-,N/A,,Scattered Clouds,100,2013-05-02 06:51:00
3:26 AM,64.4,55.4,73,30.07,10.0,East,13.8,-,N/A,,Overcast,100,2013-05-02 07:26:00
3:51 AM,64.0,55.9,75,30.06,10.0,East,13.8,20.7,N/A,,Overcast,90,2013-05-02 07:51:00
3:58 AM,64.4,55.4,73,30.07,10.0,East,11.5,-,N/A,,Overcast,100,2013-05-02 07:58:00
4:31 AM,64.4,55.4,73,30.07,10.0,East,16.1,23.0,N/A,,Overcast,90,2013-05-02 08:31:00
4:51 AM,64.0,55.9,75,30.06,10.0,East,9.2,19.6,N/A,,Overcast,100,2013-05-02 08:51:00
5:51 AM,64.0,57.0,78,30.06,10.0,East,15.0,24.2,N/A,,Overcast,90,2013-05-02 09:51:00
6:22 AM,64.4,57.2,77,30.07,10.0,East,11.5,-,N/A,,Overcast,90,2013-05-02 10:22:00
6:51 AM,64.0,57.0,78,30.06,10.0,East,12.7,-,N/A,,Overcast,90,2013-05-02 10:51:00
7:51 AM,63.0,57.0,81,30.08,10.0,East,11.5,-,N/A,,Overcast,100,2013-05-02 11:51:00
8:51 AM,63.0,57.9,84,30.09,10.0,East,9.2,-,N/A,,Overcast,100,2013-05-02 12:51:00
9:51 AM,64.9,59.0,81,30.09,10.0,East,11.5,20.7,N/A,,Overcast,100,2013-05-02 13:51:00
10:51 AM,64.9,59.0,81,30.10,10.0,East,11.5,-,N/A,,Overcast,100,2013-05-02 14:51:00
11:51 AM,66.0,61.0,84,30.10,10.0,East,10.4,-,0.00,Rain,Light Rain,90,2013-05-02 15:51:00
12:43 PM,68.0,60.8,78,30.09,10.0,East,17.3,-,0.00,,Overcast,100,2013-05-02 16:43:00
12:51 PM,69.1,60.1,73,30.08,10.0,East,17.3,24.2,0.00,,Overcast,100,2013-05-02 16:51:00
1:51 PM,70.0,60.1,71,30.07,10.0,East,10.4,-,N/A,,Overcast,100,2013-05-02 17:51:00
2:15 PM,73.4,60.8,65,30.07,10.0,East,11.5,19.6,N/A,,Overcast,90,2013-05-02 18:15:00
2:25 PM,71.6,60.8,69,30.08,10.0,East,12.7,-,N/A,,Overcast,100,2013-05-02 18:25:00
2:51 PM,73.9,61.0,64,30.05,10.0,ESE,16.1,21.9,N/A,,Mostly Cloudy,120,2013-05-02 18:51:00
3:05 PM,73.4,60.8,65,30.06,10.0,ESE,16.1,24.2,N/A,,Mostly Cloudy,110,2013-05-02 19:05:00
3:51 PM,73.9,59.0,59,30.03,10.0,East,17.3,26.5,N/A,,Overcast,90,2013-05-02 19:51:00
4:51 PM,73.0,59.0,61,30.02,10.0,ESE,12.7,19.6,N/A,,Overcast,110,2013-05-02 20:51:00
5:51 PM,73.9,60.1,62,30.01,10.0,East,13.8,-,N/A,,Scattered Clouds,100,2013-05-02 21:51:00
6:51 PM,71.1,59.0,66,30.02,10.0,East,12.7,23.0,N/A,,Mostly Cloudy,100,2013-05-02 22:51:00
7:51 PM,70.0,59.0,68,30.03,10.0,East,10.4,21.9,N/A,,Partly Cloudy,90,2013-05-02 23:51:00
8:51 PM,69.1,59.0,70,30.03,10.0,East,15.0,-,N/A,,Scattered Clouds,90,2013-05-03 00:51:00
9:36 PM,68.0,59.0,73,30.05,10.0,East,16.1,23.0,N/A,,Mostly Cloudy,90,2013-05-03 01:36:00
9:51 PM,66.9,59.0,76,30.05,10.0,East,20.7,27.6,N/A,,Overcast,100,2013-05-03 01:51:00
10:16 PM,66.2,59.0,78,30.06,10.0,East,15.0,24.2,N/A,,Overcast,100,2013-05-03 02:16:00
10:51 PM,66.0,59.0,78,30.06,10.0,East,10.4,-,N/A,,Overcast,100,2013-05-03 02:51:00
11:03 PM,66.2,59.0,78,30.07,10.0,East,12.7,19.6,N/A,,Overcast,100,2013-05-03 03:03:00
11:22 PM,64.4,60.8,88,30.06,7.0,East,16.1,25.3,0.00,Rain,Light Rain,80,2013-05-03 03:22:00
11:51 PM,64.9,59.0,81,30.04,10.0,East,10.4,-,0.00,,Overcast,80,2013-05-03 03:51:00